sensor_id;sensor_type;location;lat;lon;timestamp;pressure;altitude;pressure_sealevel;temperature;humidity
69524;BME280;56723;42.694;23.286;2023-05-16T08:29:12;94487.19;;;15.78;86.34
69524;BME280;56723;42.694;23.286;2023-05-16T08:31:40;94480.72;;;15.87;85.94
69524;BME280;56723;42.694;23.286;2023-05-16T08:34:07;94472.63;;;15.95;84.94
69524;BME280;56723;42.694;23.286;2023-05-16T08:36:36;94480.63;;;16.00;84.30
69524;BME280;56723;42.694;23.286;2023-05-16T08:39:04;94486.63;;;16.07;84.09
69524;BME280;56723;42.694;23.286;2023-05-16T08:41:31;94486.78;;;16.12;83.21
69524;BME280;56723;42.694;23.286;2023-05-16T08:43:59;94498.78;;;16.20;83.02
69524;BME280;56723;42.694;23.286;2023-05-16T08:46:27;94501.38;;;16.26;82.51
69524;BME280;56723;42.694;23.286;2023-05-16T08:48:59;94500.13;;;16.29;82.70
69524;BME280;56723;42.694;23.286;2023-05-16T08:51:31;94490.78;;;16.40;81.97
69524;BME280;56723;42.694;23.286;2023-05-16T08:54:05;94474.19;;;16.52;80.90
69524;BME280;56723;42.694;23.286;2023-05-16T08:56:36;94475.34;;;16.63;79.23
69524;BME280;56723;42.694;23.286;2023-05-16T08:59:03;94482.84;;;16.78;79.24
69524;BME280;56723;42.694;23.286;2023-05-16T09:01:30;94497.25;;;16.87;78.11
69524;BME280;56723;42.694;23.286;2023-05-16T09:04:00;94501.25;;;16.89;78.31
69524;BME280;56723;42.694;23.286;2023-05-16T09:06:27;94502.78;;;16.97;77.91
69524;BME280;56723;42.694;23.286;2023-05-16T09:08:54;94492.09;;;16.99;77.74
69524;BME280;56723;42.694;23.286;2023-05-16T09:11:22;94491.25;;;17.05;76.62
69524;BME280;56723;42.694;23.286;2023-05-16T09:13:49;94481.69;;;17.10;77.10
69524;BME280;56723;42.694;23.286;2023-05-16T09:16:18;94468.97;;;17.14;77.24
69524;BME280;56723;42.694;23.286;2023-05-16T09:18:52;94490.50;;;17.16;77.04
69524;BME280;56723;42.694;23.286;2023-05-16T09:21:22;94494.72;;;17.17;76.87
69524;BME280;56723;42.694;23.286;2023-05-16T09:23:49;94484.84;;;17.19;76.46
69524;BME280;56723;42.694;23.286;2023-05-16T09:26:17;94473.34;;;17.20;77.18
69524;BME280;56723;42.694;23.286;2023-05-16T09:28:44;94480.78;;;17.23;75.85
69524;BME280;56723;42.694;23.286;2023-05-16T09:31:22;94487.94;;;17.27;76.02
69524;BME280;56723;42.694;23.286;2023-05-16T09:33:55;94481.47;;;17.30;75.53
69524;BME280;56723;42.694;23.286;2023-05-16T09:36:22;94473.78;;;17.35;75.55
69524;BME280;56723;42.694;23.286;2023-05-16T09:38:50;94458.06;;;17.35;74.72
69524;BME280;56723;42.694;23.286;2023-05-16T09:41:17;94466.50;;;17.37;74.74
69524;BME280;56723;42.694;23.286;2023-05-16T09:43:45;94461.63;;;17.41;74.36
69524;BME280;56723;42.694;23.286;2023-05-16T09:46:15;94456.72;;;17.44;74.28
69524;BME280;56723;42.694;23.286;2023-05-16T09:48:46;94455.84;;;17.50;73.69
69524;BME280;56723;42.694;23.286;2023-05-16T09:51:14;94468.38;;;17.48;73.54
69524;BME280;56723;42.694;23.286;2023-05-16T09:53:42;94460.22;;;17.56;73.63
69524;BME280;56723;42.694;23.286;2023-05-16T09:56:10;94457.72;;;17.61;73.67
69524;BME280;56723;42.694;23.286;2023-05-16T09:58:39;94453.22;;;17.69;73.41
69524;BME280;56723;42.694;23.286;2023-05-16T10:01:06;94470.53;;;17.70;73.82
69524;BME280;56723;42.694;23.286;2023-05-16T10:03:35;94466.81;;;17.77;73.65
69524;BME280;56723;42.694;23.286;2023-05-16T10:06:05;94465.22;;;17.76;72.60
69524;BME280;56723;42.694;23.286;2023-05-16T10:08:34;94464.09;;;17.84;72.84
69524;BME280;56723;42.694;23.286;2023-05-16T10:11:05;94475.28;;;17.91;72.77
69524;BME280;56723;42.694;23.286;2023-05-16T10:13:34;94459.13;;;17.94;72.41
69524;BME280;56723;42.694;23.286;2023-05-16T10:16:08;94467.91;;;17.99;72.19
69524;BME280;56723;42.694;23.286;2023-05-16T10:18:37;94464.59;;;18.04;72.12
69524;BME280;56723;42.694;23.286;2023-05-16T10:21:06;94473.38;;;17.98;72.26
69524;BME280;56723;42.694;23.286;2023-05-16T10:23:41;94467.78;;;17.94;72.28
69524;BME280;56723;42.694;23.286;2023-05-16T10:26:10;94470.72;;;17.86;72.44
69524;BME280;56723;42.694;23.286;2023-05-16T10:28:40;94469.91;;;17.86;72.08
69524;BME280;56723;42.694;23.286;2023-05-16T10:31:09;94445.50;;;17.74;72.92
69524;BME280;56723;42.694;23.286;2023-05-16T10:33:38;94458.16;;;17.77;72.78
69524;BME280;56723;42.694;23.286;2023-05-16T10:36:09;94454.59;;;17.71;73.37
69524;BME280;56723;42.694;23.286;2023-05-16T10:38:41;94435.19;;;17.60;74.23
69524;BME280;56723;42.694;23.286;2023-05-16T10:41:09;94428.91;;;17.61;75.18
69524;BME280;56723;42.694;23.286;2023-05-16T10:43:36;94428.66;;;17.63;75.77
69524;BME280;56723;42.694;23.286;2023-05-16T10:46:07;94414.56;;;17.64;75.65
69524;BME280;56723;42.694;23.286;2023-05-16T10:48:39;94421.78;;;17.69;76.01
69524;BME280;56723;42.694;23.286;2023-05-16T10:53:54;94416.44;;;17.75;76.39
69524;BME280;56723;42.694;23.286;2023-05-16T10:56:31;94413.38;;;17.78;76.03
69524;BME280;56723;42.694;23.286;2023-05-16T10:58:59;94414.63;;;17.76;76.10
69524;BME280;56723;42.694;23.286;2023-05-16T11:01:28;94417.38;;;17.81;75.89
69524;BME280;56723;42.694;23.286;2023-05-16T11:14:21;94469.66;;;17.76;75.06
69524;BME280;56723;42.694;23.286;2023-05-16T11:16:59;94476.34;;;17.72;75.77
69524;BME280;56723;42.694;23.286;2023-05-16T11:24:37;94486.53;;;17.80;74.42
69524;BME280;56723;42.694;23.286;2023-05-16T11:27:05;94474.78;;;17.82;75.23
69524;BME280;56723;42.694;23.286;2023-05-16T11:29:35;94485.06;;;17.84;75.36
69524;BME280;56723;42.694;23.286;2023-05-16T11:32:03;94466.72;;;17.84;76.39
69524;BME280;56723;42.694;23.286;2023-05-16T11:34:34;94465.91;;;17.83;76.43
69524;BME280;56723;42.694;23.286;2023-05-16T11:37:03;94456.44;;;17.82;76.94
69524;BME280;56723;42.694;23.286;2023-05-16T11:39:31;94457.72;;;17.80;76.22
69524;BME280;56723;42.694;23.286;2023-05-16T11:41:58;94448.25;;;17.79;77.07
69524;BME280;56723;42.694;23.286;2023-05-16T11:44:25;94462.84;;;17.86;76.83
69524;BME280;56723;42.694;23.286;2023-05-16T11:46:52;94464.81;;;17.91;76.33
69524;BME280;56723;42.694;23.286;2023-05-16T11:49:19;94463.78;;;17.92;76.62
69524;BME280;56723;42.694;23.286;2023-05-16T11:51:47;94461.38;;;17.90;76.65
69524;BME280;56723;42.694;23.286;2023-05-16T11:54:15;94457.38;;;17.88;77.23
69524;BME280;56723;42.694;23.286;2023-05-16T11:56:44;94467.78;;;17.94;77.80
69524;BME280;56723;42.694;23.286;2023-05-16T11:59:11;94457.19;;;18.01;78.21
69524;BME280;56723;42.694;23.286;2023-05-16T12:01:39;94446.38;;;18.09;77.24
69524;BME280;56723;42.694;23.286;2023-05-16T12:04:09;94446.41;;;18.21;77.16
69524;BME280;56723;42.694;23.286;2023-05-16T12:06:39;94428.66;;;18.34;77.33
69524;BME280;56723;42.694;23.286;2023-05-16T12:09:11;94425.34;;;18.51;75.96
69524;BME280;56723;42.694;23.286;2023-05-16T12:11:43;94422.28;;;18.65;75.90
69524;BME280;56723;42.694;23.286;2023-05-16T12:14:11;94410.16;;;18.76;74.90
69524;BME280;56723;42.694;23.286;2023-05-16T12:16:39;94421.13;;;18.85;73.98
69524;BME280;56723;42.694;23.286;2023-05-16T12:19:08;94423.16;;;18.94;72.30
69524;BME280;56723;42.694;23.286;2023-05-16T12:21:37;94416.53;;;19.03;71.91
69524;BME280;56723;42.694;23.286;2023-05-16T12:24:10;94415.44;;;19.16;71.27
69524;BME280;56723;42.694;23.286;2023-05-16T12:26:40;94410.97;;;19.28;72.28
69524;BME280;56723;42.694;23.286;2023-05-16T12:29:08;94410.72;;;19.30;71.82
69524;BME280;56723;42.694;23.286;2023-05-16T12:31:39;94413.22;;;19.36;71.16
69524;BME280;56723;42.694;23.286;2023-05-16T12:34:17;94418.47;;;19.36;71.12
69524;BME280;56723;42.694;23.286;2023-05-16T12:36:49;94409.69;;;19.31;70.33
69524;BME280;56723;42.694;23.286;2023-05-16T12:39:17;94423.78;;;19.25;70.32
69524;BME280;56723;42.694;23.286;2023-05-16T12:41:44;94417.75;;;19.13;70.16
69524;BME280;56723;42.694;23.286;2023-05-16T12:44:15;94414.00;;;19.09;71.63
69524;BME280;56723;42.694;23.286;2023-05-16T12:46:49;94412.63;;;19.06;72.09
69524;BME280;56723;42.694;23.286;2023-05-16T12:49:20;94407.84;;;19.03;72.36
69524;BME280;56723;42.694;23.286;2023-05-16T12:51:50;94410.59;;;18.96;71.62
69524;BME280;56723;42.694;23.286;2023-05-16T12:54:18;94417.34;;;18.92;73.05
69524;BME280;56723;42.694;23.286;2023-05-16T14:17:15;94492.94;;;17.47;88.12
69524;BME280;56723;42.694;23.286;2023-05-16T14:19:42;94479.84;;;17.47;91.43
69524;BME280;56723;42.694;23.286;2023-05-16T14:22:09;94478.56;;;17.38;93.33
69524;BME280;56723;42.694;23.286;2023-05-16T14:24:36;94471.00;;;17.30;94.97
69524;BME280;56723;42.694;23.286;2023-05-16T14:27:04;94464.59;;;17.26;95.48
69524;BME280;56723;42.694;23.286;2023-05-16T14:29:31;94473.50;;;17.25;95.69
